createdAt,value
2023-03-17T00:38:10.864Z,-1.80
2023-03-17T00:40:38.479Z,-1.80
2023-03-17T01:00:46.381Z,-1.80
2023-03-17T02:53:34.209Z,-2.70
2023-03-17T04:38:09.240Z,-3.70
2023-03-17T04:43:05.544Z,-3.60
2023-03-17T07:31:56.117Z,1.20
2023-03-17T07:34:25.268Z,1.10
2023-03-17T07:39:21.864Z,1.50
2023-03-17T07:41:58.499Z,1.60
2023-03-17T07:53:16.908Z,2.10
2023-03-17T07:58:40.914Z,2.10
2023-03-17T08:15:33.228Z,2.20
2023-03-17T08:18:08.031Z,2.20
2023-03-17T08:20:45.771Z,2.30
2023-03-17T08:29:30.162Z,2.30
2023-03-17T08:31:58.228Z,2.50
2023-03-17T08:34:27.633Z,2.20
2023-03-17T08:36:57.061Z,2.70
2023-03-17T08:39:31.090Z,2.70
2023-03-17T08:42:06.898Z,2.80
2023-03-17T08:45:24.534Z,2.90
2023-03-17T08:48:25.016Z,2.90
2023-03-17T08:50:56.861Z,2.90
2023-03-17T08:53:27.515Z,2.90
2023-03-17T08:58:50.204Z,3.00
2023-03-17T09:10:12.044Z,3.20
2023-03-17T09:15:52.211Z,3.10
2023-03-17T09:18:22.060Z,3.20
2023-03-17T09:20:49.844Z,3.20
2023-03-17T09:23:17.414Z,3.50
2023-03-17T09:25:45.149Z,2.80
2023-03-17T09:28:13.478Z,2.90
2023-03-17T09:30:45.878Z,2.80
2023-03-17T09:33:16.022Z,2.60
2023-03-17T09:35:43.720Z,2.70
2023-03-17T09:38:12.153Z,2.70
2023-03-17T09:40:52.816Z,2.90
2023-03-17T09:44:06.987Z,3.60
2023-03-17T09:46:39.018Z,3.10
2023-03-17T09:49:25.276Z,2.90
2023-03-17T09:51:53.693Z,2.90
2023-03-17T10:01:25.047Z,2.90
2023-03-17T10:03:53.750Z,2.90
2023-03-17T10:06:55.893Z,2.90
2023-03-17T10:12:31.001Z,3.10
2023-03-17T10:15:02.903Z,3.10
2023-03-17T10:17:41.828Z,3.00
2023-03-17T10:20:25.459Z,2.70
2023-03-17T10:25:43.278Z,3.20
2023-03-17T10:28:30.897Z,3.10
2023-03-17T10:31:20.139Z,3.10
2023-03-17T10:33:52.654Z,3.30
2023-03-17T10:36:46.038Z,3.20
2023-03-17T10:39:19.116Z,3.20
2023-03-17T10:42:11.967Z,3.30
2023-03-17T10:44:42.535Z,3.60
2023-03-17T10:47:39.586Z,3.50
2023-03-17T10:50:34.684Z,3.70
2023-03-17T10:53:20.489Z,3.30
2023-03-17T10:55:54.852Z,3.50
2023-03-17T10:58:40.662Z,3.40
2023-03-17T11:01:18.610Z,2.70
2023-03-17T11:03:49.792Z,3.50
2023-03-17T11:06:31.415Z,3.20
2023-03-17T11:09:07.749Z,3.60
2023-03-17T11:11:47.693Z,3.80
2023-03-17T11:14:18.760Z,3.40
2023-03-17T11:20:53.962Z,3.20
2023-03-17T11:24:01.206Z,3.20
2023-03-17T11:26:49.649Z,2.90
2023-03-17T11:29:39.677Z,3.20
2023-03-17T11:32:39.362Z,3.40
2023-03-17T11:35:34.580Z,3.20
2023-03-17T11:38:28.291Z,3.20
2023-03-17T11:40:55.789Z,3.00
2023-03-17T11:44:09.527Z,3.00
2023-03-17T11:46:55.648Z,3.10
2023-03-17T11:49:39.270Z,3.10
2023-03-17T11:52:30.816Z,3.10
2023-03-17T11:55:30.329Z,3.10
2023-03-17T11:58:15.098Z,3.30
2023-03-17T12:00:52.753Z,3.00
2023-03-17T12:03:32.451Z,3.10
2023-03-17T12:06:08.163Z,3.30
2023-03-17T12:09:29.735Z,3.50
2023-03-17T12:12:02.692Z,3.20
2023-03-17T12:14:40.140Z,3.40
2023-03-17T12:17:48.570Z,3.30
2023-03-17T12:20:36.108Z,3.30
2023-03-17T12:23:17.166Z,3.60
2023-03-17T12:26:03.483Z,3.00
2023-03-17T12:28:42.889Z,3.40
2023-03-17T12:31:16.863Z,3.80
2023-03-17T12:34:17.870Z,3.30
2023-03-17T12:36:45.448Z,3.60
2023-03-17T12:39:16.407Z,3.40
2023-03-17T12:42:21.210Z,3.20
2023-03-17T12:45:27.601Z,2.90
2023-03-17T12:47:57.718Z,3.20
2023-03-17T12:50:31.267Z,3.20
2023-03-17T12:53:04.771Z,3.30
2023-03-17T12:55:34.262Z,3.40
2023-03-17T12:58:15.782Z,3.30
2023-03-17T13:01:25.525Z,3.30
2023-03-17T13:04:14.755Z,3.70
2023-03-17T13:07:06.409Z,3.90
2023-03-17T13:09:43.130Z,3.40
2023-03-17T13:12:44.893Z,3.50
2023-03-17T13:15:28.414Z,3.60
2023-03-17T13:20:40.284Z,3.50
2023-03-17T13:23:10.831Z,3.30
2023-03-17T13:25:45.815Z,3.60
2023-03-17T13:28:13.363Z,3.30
2023-03-17T13:31:18.273Z,3.40
2023-03-17T13:33:54.527Z,3.60
2023-03-17T13:36:37.877Z,3.20
2023-03-17T13:39:47.090Z,3.40
2023-03-17T13:42:25.174Z,3.50
2023-03-17T13:45:31.785Z,3.60
2023-03-17T13:48:31.090Z,3.20
2023-03-17T13:51:22.151Z,2.90
2023-03-17T13:53:57.643Z,3.40
2023-03-17T13:56:49.180Z,3.30
2023-03-17T13:59:32.698Z,3.10
2023-03-17T14:02:33.343Z,3.20
2023-03-17T14:05:17.117Z,3.20
2023-03-17T14:07:53.529Z,2.90
2023-03-17T14:10:25.875Z,3.00
2023-03-17T14:13:11.781Z,2.90
2023-03-17T14:15:56.612Z,3.00
2023-03-17T14:18:33.819Z,3.00
2023-03-17T14:21:08.919Z,3.00
2023-03-17T14:23:39.481Z,3.00
2023-03-17T14:26:10.868Z,3.10
2023-03-17T14:28:40.703Z,3.10
2023-03-17T14:31:24.153Z,3.10
2023-03-17T14:33:55.895Z,3.20
2023-03-17T14:36:24.392Z,2.70
2023-03-17T14:39:00.623Z,3.00
2023-03-17T14:41:29.252Z,3.10
2023-03-17T14:44:01.611Z,2.80
2023-03-17T14:46:35.492Z,2.80
2023-03-17T14:49:20.497Z,2.70
2023-03-17T14:51:57.322Z,2.90
2023-03-17T14:54:36.176Z,2.70
2023-03-17T14:57:09.223Z,2.50
2023-03-17T14:59:41.912Z,2.70
2023-03-17T15:02:31.364Z,3.30
2023-03-17T15:05:21.020Z,2.60
2023-03-17T15:07:55.391Z,2.50
2023-03-17T15:10:26.189Z,2.50
2023-03-17T15:13:13.739Z,2.40
2023-03-17T15:15:43.249Z,2.50
2023-03-17T15:18:13.911Z,2.30
2023-03-17T15:20:44.876Z,2.30
2023-03-17T15:23:18.826Z,2.40
2023-03-17T15:25:52.424Z,2.40
2023-03-17T15:28:21.877Z,2.40
2023-03-17T15:30:52.219Z,2.40
2023-03-17T15:33:37.255Z,1.80
2023-03-17T15:36:05.973Z,2.40
2023-03-17T15:38:37.159Z,2.30
2023-03-17T15:41:05.503Z,1.90
2023-03-17T15:43:34.886Z,2.30
2023-03-17T15:46:05.756Z,2.20
2023-03-17T15:48:36.418Z,2.40
2023-03-17T15:51:06.444Z,3.60
2023-03-17T15:53:38.266Z,2.20
2023-03-17T15:56:10.826Z,2.00
2023-03-17T15:58:44.840Z,2.20
2023-03-17T16:01:13.703Z,2.00
2023-03-17T16:03:42.230Z,2.00
2023-03-17T16:06:21.726Z,2.10
2023-03-17T16:08:49.982Z,2.80
2023-03-17T16:11:20.763Z,2.10
2023-03-17T16:13:48.288Z,1.70
2023-03-17T16:16:24.572Z,2.00
2023-03-17T16:18:52.757Z,2.00
2023-03-17T16:21:21.552Z,2.10
2023-03-17T16:23:49.677Z,2.20
2023-03-17T16:26:17.365Z,2.00
2023-03-17T16:28:46.409Z,1.90
2023-03-17T16:31:20.930Z,3.30
2023-03-17T16:33:49.037Z,2.50
2023-03-17T16:36:19.704Z,2.00
2023-03-17T16:38:49.847Z,2.70
2023-03-17T16:41:22.823Z,2.10
2023-03-17T16:44:01.802Z,2.10
2023-03-17T16:46:35.033Z,2.10
2023-03-17T16:49:04.377Z,2.10
2023-03-17T16:51:33.395Z,2.70
2023-03-17T16:54:01.737Z,2.10
2023-03-17T16:56:30.105Z,2.10
2023-03-17T16:58:57.653Z,2.30
2023-03-17T17:01:27.725Z,2.10
2023-03-17T17:03:58.557Z,4.20
2023-03-17T17:06:28.123Z,2.20
2023-03-17T17:08:57.386Z,2.30
2023-03-17T17:11:25.113Z,2.20
2023-03-17T17:13:52.565Z,2.30
2023-03-17T17:16:23.646Z,2.20
2023-03-17T17:18:51.158Z,2.20
2023-03-17T17:21:19.147Z,2.40
2023-03-17T17:23:53.414Z,2.70
2023-03-17T17:26:23.778Z,1.80
2023-03-17T17:28:55.494Z,2.30
2023-03-17T17:31:24.490Z,2.70
2023-03-17T17:33:56.221Z,3.80
2023-03-17T17:36:29.194Z,2.30
2023-03-17T17:39:00.059Z,2.60
2023-03-17T17:41:32.572Z,2.40
2023-03-17T17:44:17.643Z,3.80
2023-03-17T17:46:45.558Z,2.50
2023-03-17T17:49:13.824Z,2.40
2023-03-17T17:51:41.906Z,2.50
2023-03-17T17:54:11.023Z,2.50
2023-03-17T17:56:47.348Z,2.50
2023-03-17T17:59:15.746Z,2.10
2023-03-17T18:01:44.632Z,2.50
2023-03-17T18:04:13.266Z,2.50
2023-03-17T18:06:42.319Z,2.40
2023-03-17T18:09:10.966Z,2.60
2023-03-17T18:11:44.458Z,2.30
2023-03-17T18:14:13.896Z,2.50
2023-03-17T18:16:41.946Z,2.50
2023-03-17T18:19:12.698Z,3.30
2023-03-17T18:21:40.481Z,2.40
2023-03-17T18:24:09.896Z,2.50
2023-03-17T18:26:38.066Z,2.40
2023-03-17T18:29:05.666Z,2.50
2023-03-17T18:31:39.485Z,2.50
2023-03-17T18:34:32.206Z,2.50
2023-03-17T18:37:02.011Z,2.40
2023-03-17T18:39:31.254Z,2.30
2023-03-17T18:41:58.773Z,2.70
2023-03-17T18:44:26.257Z,2.00
2023-03-17T18:46:53.791Z,2.50
2023-03-17T18:49:25.453Z,2.20
2023-03-17T18:51:53.976Z,2.10
2023-03-17T18:54:21.579Z,2.10
2023-03-17T18:56:51.773Z,2.10
2023-03-17T18:59:20.853Z,2.00
2023-03-17T19:01:50.338Z,1.60
2023-03-17T19:04:17.710Z,2.00
2023-03-17T19:06:45.156Z,1.90
2023-03-17T19:09:14.294Z,2.00
2023-03-17T19:11:44.268Z,1.90
2023-03-17T19:14:12.795Z,1.90
2023-03-17T19:16:43.196Z,2.00
2023-03-17T19:19:11.436Z,1.90
2023-03-17T19:21:40.885Z,1.80
2023-03-17T19:24:10.672Z,1.70
2023-03-17T19:26:39.234Z,1.80
2023-03-17T19:29:09.850Z,1.90
2023-03-17T19:31:41.762Z,1.70
2023-03-17T19:34:14.526Z,1.90
2023-03-17T19:36:45.899Z,2.00
2023-03-17T19:39:14.648Z,1.80
2023-03-17T19:41:42.437Z,1.80
2023-03-17T19:44:09.927Z,1.90
2023-03-17T19:46:42.765Z,2.00
2023-03-17T19:49:10.594Z,2.00
2023-03-17T19:51:40.344Z,1.30
2023-03-17T19:54:09.823Z,2.00
2023-03-17T19:56:40.526Z,2.80
2023-03-17T19:59:10.663Z,1.90
2023-03-17T20:01:38.457Z,1.90
2023-03-17T20:04:08.468Z,1.90
2023-03-17T20:06:35.976Z,3.20
2023-03-17T20:09:04.532Z,2.90
2023-03-17T20:11:34.206Z,2.00
2023-03-17T20:14:02.856Z,2.00
2023-03-17T20:16:33.914Z,3.70
2023-03-17T20:19:02.507Z,2.20
2023-03-17T20:21:30.248Z,2.00
2023-03-17T20:23:58.003Z,2.00
2023-03-17T20:26:25.918Z,2.00
2023-03-17T20:28:53.910Z,2.10
2023-03-17T20:31:22.823Z,2.10
2023-03-17T20:33:50.650Z,1.90
2023-03-17T20:36:18.489Z,2.00
2023-03-17T20:38:48.202Z,2.00
2023-03-17T20:41:19.897Z,2.40
2023-03-17T20:43:47.982Z,1.90
2023-03-17T20:46:18.360Z,2.00
2023-03-17T20:48:49.157Z,2.10
2023-03-17T20:51:19.005Z,2.00
2023-03-17T20:53:49.120Z,3.30
2023-03-17T20:56:19.940Z,2.00
2023-03-17T20:58:53.432Z,3.20
2023-03-17T21:01:26.921Z,2.10
2023-03-17T21:03:55.221Z,1.90
2023-03-17T21:06:25.999Z,2.00
2023-03-17T21:08:57.268Z,3.30
2023-03-17T21:11:28.470Z,2.20
2023-03-17T21:14:00.076Z,2.10
2023-03-17T21:16:29.949Z,2.90
2023-03-17T21:18:57.611Z,2.20
2023-03-17T21:21:26.145Z,2.20
2023-03-17T21:24:01.481Z,2.00
2023-03-17T21:26:29.338Z,2.20
2023-03-17T21:28:57.742Z,2.40
2023-03-17T21:31:25.348Z,3.90
2023-03-17T21:33:54.631Z,2.90
2023-03-17T21:36:26.514Z,2.90
2023-03-17T21:39:07.553Z,2.70
2023-03-17T21:41:38.081Z,2.40
2023-03-17T21:44:08.777Z,3.50
2023-03-17T21:46:36.462Z,2.60
2023-03-17T21:49:04.461Z,3.30
2023-03-17T21:51:36.429Z,2.40
2023-03-17T21:54:05.594Z,3.40
2023-03-17T21:56:35.896Z,2.40
2023-03-17T21:59:04.794Z,2.50
2023-03-17T22:01:32.408Z,2.40
2023-03-17T22:04:00.176Z,2.40
2023-03-17T22:06:29.949Z,2.80
2023-03-17T22:08:57.431Z,3.20
2023-03-17T22:11:24.945Z,2.90
2023-03-17T22:13:54.189Z,3.40
2023-03-17T22:16:21.886Z,2.30
2023-03-17T22:18:49.732Z,2.50
2023-03-17T22:21:18.332Z,3.40
2023-03-17T22:23:47.165Z,2.40
2023-03-17T22:26:17.448Z,2.50
2023-03-17T22:28:48.985Z,4.00
2023-03-17T22:31:22.394Z,4.00
2023-03-17T22:33:52.467Z,2.40
2023-03-17T22:36:24.862Z,2.50
2023-03-17T22:39:00.754Z,2.50
2023-03-17T22:41:29.902Z,4.60
2023-03-17T22:43:58.400Z,2.60
2023-03-17T22:46:27.013Z,3.20
2023-03-17T22:48:55.787Z,3.00
2023-03-17T22:51:27.164Z,2.80
2023-03-17T22:53:59.319Z,2.60
2023-03-17T22:56:28.610Z,3.00
2023-03-17T22:59:03.568Z,2.80
2023-03-17T23:01:32.554Z,2.50
2023-03-17T23:04:08.274Z,2.50
2023-03-17T23:06:38.448Z,3.90
2023-03-17T23:09:07.702Z,2.60
2023-03-17T23:11:39.733Z,2.70
2023-03-17T23:14:21.328Z,2.50
2023-03-17T23:16:49.197Z,3.20
2023-03-17T23:19:18.491Z,2.60
2023-03-17T23:21:45.898Z,2.70
2023-03-17T23:24:13.695Z,3.20
2023-03-17T23:26:44.116Z,2.70
2023-03-17T23:29:11.949Z,2.60
2023-03-17T23:31:41.106Z,2.60
2023-03-17T23:34:10.333Z,2.70
2023-03-17T23:36:41.207Z,2.60
2023-03-17T23:39:10.202Z,2.70
2023-03-17T23:41:39.488Z,3.30
2023-03-17T23:44:07.525Z,2.90
2023-03-17T23:46:35.392Z,2.90
2023-03-17T23:49:04.616Z,3.00
2023-03-17T23:51:36.153Z,2.80
2023-03-17T23:54:05.113Z,2.70
2023-03-17T23:56:35.086Z,2.80
2023-03-17T23:59:06.694Z,2.90
